Flight Track Log - Related Links

Times and Time Zones

All times are in EDT time to prevent confusion due to time zone crossing. See the N845AE flight status page for this flight to view local times or setup timezone preferences in your user account.


Time Position Orientation Groundspeed Altitude Reporting Facility
EDT Latitude Longitude Course Direction KTS MPH feet Rate Location/Type
Wed 11:15:09 PM 32.8833 -97.0500 170° South 170 196 1,200  Level Dallas / Fort Worth TRACON
Wed 11:16:21 PM 32.8167 -97.0500 180° South 225 259 3,400 2,227 Climbing Dallas / Fort Worth TRACON
Wed 11:17:00 PM 32.6193 -96.8825 172° South  Level Estimated
Wed 11:18:00 PM 32.5268 -96.8308 175° South  Level Estimated
Wed 11:18:23 PM 32.6678 -97.0258 172° South 258 297 8,400  Level Fort Worth Center
Wed 11:19:00 PM 32.4334 -96.8803 204° Southwest  Level FlightAware Approximate
Wed 11:19:23 PM 32.5928 -97.0089 169° South 268 308 10,300  Level Fort Worth Center
Wed 11:20:00 PM 32.3420 -96.8261 170° South  Level Estimated
Wed 11:20:23 PM 32.5092 -96.9922 170° South 299 344 11,700  Level Fort Worth Center
Wed 11:21:23 PM 32.4108 -96.9681 168° South 327 376 13,100 1,550 Climbing Fort Worth Center
Wed 11:22:23 PM 32.3147 -96.9464 169° South 354 407 14,800 1,700 Climbing Fort Worth Center
Wed 11:23:23 PM 32.2144 -96.9297 172° South 365 420 16,500 1,700 Climbing Fort Worth Center
Wed 11:24:23 PM 32.1142 -96.9131 172° South 365 420 18,200 1,750 Climbing Fort Worth Center
Wed 11:25:23 PM 32.0139 -96.8914 170° South 370 426 20,000 1,800 Climbing Fort Worth Center
Wed 11:26:23 PM 31.9158 -96.8775 173° South 365 420 21,800 1,653 Climbing Fort Worth Center
Wed 11:27:01 PM 31.8617 -96.8664 170° South 367 422 22,700 1,531 Climbing Houston Center
Wed 11:28:01 PM 31.7578 -96.8478 171° South 371 427 24,300 1,537 Climbing Houston Center
Wed 11:29:02 PM 31.6522 -96.8306 172° South 377 434 25,800 1,328 Climbing Houston Center
Wed 11:30:03 PM 31.5439 -96.8128 172° South 386 444 27,000 590 Climbing Houston Center
Wed 11:31:04 PM 31.4289 -96.7939 172° South 409 471 27,000  Level Houston Center
Wed 11:32:05 PM 31.3089 -96.7747 172° South 426 490 27,000  Level Houston Center
Wed 11:33:05 PM 31.1933 -96.7564 172° South 416 479 27,000  Level Houston Center
Wed 11:34:06 PM 31.0783 -96.7600 182° South 407 468 27,000  Level Houston Center
Wed 11:35:07 PM 30.9542 -96.7650 182° South 432 497 27,000  Level Houston Center
Wed 11:36:08 PM 30.8267 -96.7669 181° South 446 513 27,000  Level Houston Center
Wed 11:37:09 PM 30.6958 -96.7689 181° South 457 526 27,000  Level Houston Center
Wed 11:38:09 PM 30.5686 -96.7725 181° South 453 521 27,000 -149 Level Houston Center
Wed 11:39:10 PM 30.4386 -96.7778 182° South 459 528 26,700 -639 Descending Houston Center
Wed 11:40:11 PM 30.3106 -96.7828 182° South 454 522 25,700 -1,033 Descending Houston Center
Wed 11:41:12 PM 30.1828 -96.7625 172° South 458 527 24,600 -1,082 Descending Houston Center
Wed 11:42:13 PM 30.0772 -96.6797 146° Southeast 453 521 23,500 -1,434 Descending Houston Center
Wed 11:43:05 PM 29.9842 -96.5919 141° Southeast 450 518 21,900 -1,920 Descending Houston Center
Wed 11:43:53 PM 29.9383 -96.4958 119° Southeast 438 504 20,300 -1,982 Descending Houston Center
Wed 11:44:54 PM 29.9414 -96.3558 89° East 413 475 18,300 -2,016 Descending Houston Center
Wed 11:45:55 PM 29.8956 -96.2356 114° Southeast 398 458 16,200 -1,967 Descending Houston Center
Wed 11:46:56 PM 29.8503 -96.1228 115° Southeast 399 459 14,300 -1,983 Descending Houston Center
Wed 11:47:56 PM 29.8047 -96.0075 114° Southeast 370 426 12,200 -1,775 Descending Houston Center
Wed 11:49:18 PM 29.7522 -95.8789 115° Southeast 355 409 10,100 -1,268 Descending Houston Center
Wed 11:50:18 PM 29.7175 -95.7944 115° Southeast 298 343 9,200 -1,200 Descending Houston Center
Wed 11:50:58 PM 29.6922 -95.7294 114° Southeast 290 334 8,100 -1,545 Descending Houston Center
Wed 11:51:59 PM 29.6619 -95.6489 113° Southeast 269 310 6,600 -1,448 Descending Houston Center
Wed 11:52:54 PM 29.6469 -95.5761 103° East 249 287 5,300 -1,418 Descending Houston Center

Login

Don't have an account? Register now (free) for customized features, flight alerts, and more!